createdAt,value
2022-09-12T00:00:01.657Z,13.90
2022-09-12T00:00:25.394Z,13.90
2022-09-12T00:00:48.201Z,13.90
2022-09-12T00:01:12.795Z,13.90
2022-09-12T00:01:35.581Z,14.00
2022-09-12T00:01:58.627Z,14.00
2022-09-12T00:02:21.390Z,14.00
2022-09-12T00:02:44.353Z,14.00
2022-09-12T00:03:07.210Z,14.00
2022-09-12T00:03:29.934Z,14.00
2022-09-12T00:03:52.955Z,14.00
2022-09-12T00:04:15.684Z,14.00
2022-09-12T00:04:38.469Z,14.00
2022-09-12T00:05:01.195Z,14.00
2022-09-12T00:05:23.906Z,14.00
2022-09-12T00:05:47.273Z,14.00
2022-09-12T00:06:11.203Z,14.00
2022-09-12T00:06:34.914Z,14.00
2022-09-12T00:06:57.645Z,13.90
2022-09-12T00:07:20.410Z,13.90
2022-09-12T00:07:45.445Z,13.90
2022-09-12T00:08:08.289Z,13.90
2022-09-12T00:08:30.950Z,13.90
2022-09-12T00:08:57.350Z,13.90
2022-09-12T00:09:20.099Z,13.90
2022-09-12T00:09:42.815Z,13.90
2022-09-12T00:10:09.634Z,13.90
2022-09-12T00:10:32.383Z,13.80
2022-09-12T00:10:55.143Z,13.80
2022-09-12T00:11:17.938Z,13.90
2022-09-12T00:11:41.419Z,13.80
2022-09-12T00:12:04.755Z,13.80
2022-09-12T00:12:27.508Z,13.90
2022-09-12T00:12:50.376Z,13.90
2022-09-12T00:13:14.436Z,13.80
2022-09-12T00:13:41.533Z,13.80
2022-09-12T00:14:04.960Z,13.80
2022-09-12T00:14:27.603Z,13.80
2022-09-12T00:14:53.540Z,13.80
2022-09-12T00:15:16.281Z,13.80
2022-09-12T00:15:39.199Z,13.80
2022-09-12T00:16:02.109Z,13.80
2022-09-12T00:16:25.998Z,13.70
2022-09-12T00:16:48.830Z,13.80
2022-09-12T00:17:12.692Z,13.80
2022-09-12T00:17:35.518Z,13.70
2022-09-12T00:18:00.424Z,13.70
2022-09-12T00:18:23.680Z,13.80
2022-09-12T00:18:47.149Z,13.80
2022-09-12T00:19:10.504Z,13.80
2022-09-12T00:19:33.254Z,13.70
2022-09-12T00:19:56.350Z,13.70
2022-09-12T00:20:19.299Z,13.80
2022-09-12T00:20:42.406Z,13.70
2022-09-12T00:21:05.383Z,13.70
2022-09-12T00:21:28.485Z,13.80
2022-09-12T00:21:51.224Z,13.80
2022-09-12T00:22:13.946Z,13.80
2022-09-12T00:22:36.680Z,13.80
2022-09-12T00:22:59.425Z,13.80
2022-09-12T00:23:22.185Z,13.80
2022-09-12T00:23:45.200Z,13.80
2022-09-12T00:24:08.115Z,13.80
2022-09-12T00:24:31.085Z,13.80
2022-09-12T00:24:53.789Z,13.80
2022-09-12T00:25:16.689Z,13.80
2022-09-12T00:25:42.943Z,13.80
2022-09-12T00:26:06.259Z,13.80
2022-09-12T00:26:31.878Z,13.80
2022-09-12T00:26:54.643Z,13.80
2022-09-12T00:27:17.654Z,13.80
2022-09-12T00:27:40.405Z,13.80
2022-09-12T00:28:03.366Z,13.80
2022-09-12T00:28:27.998Z,13.80
2022-09-12T00:28:50.727Z,13.80
2022-09-12T00:29:15.400Z,13.80
2022-09-12T00:29:38.421Z,13.80
2022-09-12T00:30:01.253Z,13.80
2022-09-12T00:30:24.050Z,13.80
2022-09-12T00:30:49.610Z,13.80
2022-09-12T00:31:13.851Z,13.80
2022-09-12T00:31:36.812Z,13.80
2022-09-12T00:31:59.647Z,13.80
2022-09-12T00:32:22.366Z,13.80
2022-09-12T00:32:45.296Z,13.80
2022-09-12T00:33:08.080Z,13.90
2022-09-12T00:33:31.412Z,13.80
2022-09-12T00:33:56.841Z,13.80
2022-09-12T00:34:19.688Z,13.80
2022-09-12T00:34:42.408Z,13.80
2022-09-12T00:35:05.908Z,13.80
2022-09-12T00:35:30.833Z,13.80
2022-09-12T00:35:53.763Z,13.80
2022-09-12T00:36:18.594Z,13.80
2022-09-12T00:36:41.788Z,13.80
2022-09-12T00:37:04.639Z,13.70
2022-09-12T00:37:27.515Z,13.70
2022-09-12T00:37:50.220Z,13.70
2022-09-12T00:38:13.030Z,13.60
2022-09-12T00:38:38.743Z,13.60
2022-09-12T00:39:01.860Z,13.60
2022-09-12T00:39:24.624Z,13.50
2022-09-12T00:39:47.389Z,13.50
2022-09-12T00:40:10.733Z,13.50
2022-09-12T00:40:33.441Z,13.50
2022-09-12T00:40:56.145Z,13.40
2022-09-12T00:41:20.021Z,13.50
2022-09-12T00:41:42.865Z,13.50
2022-09-12T00:42:05.825Z,13.40
2022-09-12T00:42:28.608Z,13.40
2022-09-12T00:42:52.655Z,13.30
2022-09-12T00:43:15.653Z,13.40
2022-09-12T00:43:40.907Z,13.30
2022-09-12T00:44:19.909Z,13.30
2022-09-12T00:44:48.013Z,13.30
2022-09-12T00:45:12.126Z,13.30
2022-09-12T00:45:38.148Z,13.30
2022-09-12T00:46:04.919Z,13.30
2022-09-12T00:46:31.538Z,13.20
2022-09-12T00:46:55.057Z,13.20
2022-09-12T00:47:23.545Z,13.20
2022-09-12T00:47:46.292Z,13.20
2022-09-12T00:48:14.667Z,13.20
2022-09-12T00:48:42.284Z,13.20
2022-09-12T00:49:07.397Z,13.20
2022-09-12T00:49:31.740Z,13.20
2022-09-12T00:50:01.644Z,13.20
2022-09-12T00:50:24.425Z,13.20
2022-09-12T00:50:47.200Z,13.20
2022-09-12T00:51:12.434Z,13.20
2022-09-12T00:51:35.364Z,13.20
2022-09-12T00:52:00.911Z,13.20
2022-09-12T00:52:27.029Z,13.20
2022-09-12T00:52:50.645Z,13.20
2022-09-12T00:53:13.449Z,13.30
2022-09-12T00:53:36.143Z,13.30
2022-09-12T00:53:59.575Z,13.20
2022-09-12T00:54:23.671Z,13.20
2022-09-12T00:54:48.399Z,13.20
2022-09-12T00:55:14.038Z,13.30
2022-09-12T00:55:40.644Z,13.20
2022-09-12T00:56:03.489Z,13.30
2022-09-12T00:56:26.199Z,13.20
2022-09-12T00:56:48.974Z,13.30
2022-09-12T00:57:11.729Z,13.20
2022-09-12T00:57:36.384Z,13.20
2022-09-12T00:58:01.374Z,13.30
2022-09-12T00:58:24.818Z,13.20
2022-09-12T00:58:51.695Z,13.20
2022-09-12T00:59:15.514Z,13.20
2022-09-12T00:59:39.902Z,13.20
2022-09-12T01:00:09.142Z,13.20
2022-09-12T01:00:31.825Z,13.20
2022-09-12T01:00:54.591Z,13.20
2022-09-12T01:01:17.399Z,13.20
2022-09-12T01:01:41.047Z,13.30
2022-09-12T01:02:04.185Z,13.30
2022-09-12T01:02:27.128Z,13.30
2022-09-12T01:02:53.973Z,13.20
2022-09-12T01:03:17.453Z,13.20
2022-09-12T01:03:40.253Z,13.20
2022-09-12T01:04:05.913Z,13.20
2022-09-12T01:04:28.494Z,13.20
2022-09-12T01:04:53.633Z,13.20
2022-09-12T01:05:16.583Z,13.20
2022-09-12T01:05:40.485Z,13.20
2022-09-12T01:06:06.053Z,13.20
2022-09-12T01:06:30.534Z,13.20
2022-09-12T01:06:53.339Z,13.30
2022-09-12T01:07:16.083Z,13.20
2022-09-12T01:07:40.201Z,13.20
2022-09-12T01:08:03.783Z,13.30
2022-09-12T01:08:27.648Z,13.20
2022-09-12T01:08:50.293Z,13.30
2022-09-12T01:09:15.843Z,13.30
2022-09-12T01:09:38.534Z,13.20
2022-09-12T01:10:03.445Z,13.20
2022-09-12T01:10:26.168Z,13.20
2022-09-12T01:10:48.833Z,13.20
2022-09-12T01:11:12.489Z,13.20
2022-09-12T01:11:36.347Z,13.20
2022-09-12T01:11:59.285Z,13.20
2022-09-12T01:12:21.968Z,13.20
2022-09-12T01:12:44.583Z,13.20
2022-09-12T01:13:08.703Z,13.20
2022-09-12T01:13:31.998Z,13.20
2022-09-12T01:13:56.064Z,13.20
2022-09-12T01:14:18.882Z,13.20
2022-09-12T01:14:44.973Z,13.20
2022-09-12T01:15:08.185Z,13.20
2022-09-12T01:15:30.850Z,13.10
2022-09-12T01:15:54.421Z,13.10
2022-09-12T01:16:17.213Z,13.20
2022-09-12T01:16:42.418Z,13.20
2022-09-12T01:17:05.192Z,13.20
2022-09-12T01:17:33.686Z,13.20
2022-09-12T01:18:04.681Z,13.20
2022-09-12T01:18:32.657Z,13.20
2022-09-12T01:19:02.600Z,13.20
2022-09-12T01:19:42.411Z,13.20
2022-09-12T01:20:42.046Z,13.30
2022-09-12T01:21:11.896Z,13.30
2022-09-12T01:21:38.032Z,13.30
2022-09-12T01:22:13.039Z,13.30
2022-09-12T01:22:52.810Z,13.30
2022-09-12T01:23:31.387Z,13.30
2022-09-12T01:24:27.358Z,13.30
2022-09-12T01:24:53.273Z,13.20
2022-09-12T01:25:20.214Z,13.20
2022-09-12T01:25:49.458Z,13.20
2022-09-12T01:26:23.993Z,13.20
2022-09-12T01:27:19.354Z,13.20
2022-09-12T01:27:49.202Z,13.10
2022-09-12T01:28:27.074Z,13.10
2022-09-12T01:29:10.718Z,13.10
2022-09-12T01:29:45.610Z,13.10
2022-09-12T01:30:28.628Z,13.00
2022-09-12T01:30:52.853Z,13.00
2022-09-12T01:31:17.556Z,13.00
2022-09-12T01:31:42.873Z,13.00
2022-09-12T01:32:07.919Z,13.00
2022-09-12T01:32:35.908Z,13.00
2022-09-12T01:33:12.977Z,13.00
2022-09-12T01:34:00.850Z,13.00
2022-09-12T01:34:28.166Z,13.00
2022-09-12T01:34:53.445Z,13.10
2022-09-12T01:35:21.534Z,13.10
2022-09-12T01:35:48.664Z,13.10
2022-09-12T01:36:26.753Z,13.10
2022-09-12T01:36:55.516Z,13.10
2022-09-12T01:37:25.285Z,13.10
2022-09-12T01:37:53.865Z,13.10
2022-09-12T01:38:23.045Z,13.10
2022-09-12T01:38:47.434Z,13.10
2022-09-12T01:39:14.625Z,13.10
2022-09-12T01:39:40.455Z,13.10
2022-09-12T01:40:06.161Z,13.10
2022-09-12T01:40:31.875Z,13.10
2022-09-12T01:41:00.564Z,13.10
2022-09-12T01:41:26.082Z,13.10
2022-09-12T01:41:54.096Z,13.20
2022-09-12T01:42:20.172Z,13.20
2022-09-12T01:42:47.224Z,13.20
2022-09-12T01:43:12.376Z,13.20
2022-09-12T01:43:37.769Z,13.20
2022-09-12T01:44:04.476Z,13.20
2022-09-12T01:44:32.662Z,13.20
2022-09-12T01:44:57.324Z,13.20
2022-09-12T01:45:22.461Z,13.20
2022-09-12T01:45:47.531Z,13.20
2022-09-12T01:46:12.231Z,13.20
2022-09-12T01:46:39.033Z,13.20
2022-09-12T01:47:05.666Z,13.20
2022-09-12T01:47:31.056Z,13.20
2022-09-12T01:47:56.302Z,13.20
2022-09-12T01:48:20.668Z,13.20
2022-09-12T01:48:45.107Z,13.20
2022-09-12T01:49:09.439Z,13.20
2022-09-12T01:49:34.564Z,13.20
2022-09-12T01:49:59.850Z,13.20
2022-09-12T01:50:25.165Z,13.20
2022-09-12T01:50:51.946Z,13.20
2022-09-12T01:51:18.340Z,13.20
2022-09-12T01:51:42.696Z,13.20
2022-09-12T01:52:07.203Z,13.20
2022-09-12T01:52:32.566Z,13.20
2022-09-12T01:52:56.125Z,13.20
2022-09-12T01:53:21.047Z,13.20
2022-09-12T01:53:45.251Z,13.20
2022-09-12T01:54:10.121Z,13.20
2022-09-12T01:54:35.673Z,13.20
2022-09-12T01:55:00.624Z,13.20
2022-09-12T01:55:24.459Z,13.20
2022-09-12T01:55:51.537Z,13.20
2022-09-12T01:56:15.697Z,13.30
2022-09-12T01:56:39.669Z,13.30
2022-09-12T01:57:04.153Z,13.20
2022-09-12T01:57:30.328Z,13.20
2022-09-12T01:57:54.632Z,13.20
2022-09-12T01:58:19.875Z,13.20
2022-09-12T01:58:45.245Z,13.20
2022-09-12T01:59:11.550Z,13.20
2022-09-12T01:59:36.226Z,13.20
2022-09-12T02:00:00.627Z,13.20
2022-09-12T02:00:23.501Z,13.20
2022-09-12T02:00:50.571Z,13.20
2022-09-12T02:01:16.738Z,13.20
2022-09-12T02:01:42.312Z,13.20
2022-09-12T02:02:07.576Z,13.20
2022-09-12T02:02:33.137Z,13.20
2022-09-12T02:02:58.136Z,13.30
2022-09-12T02:03:24.383Z,13.20
2022-09-12T02:03:49.452Z,13.20
2022-09-12T02:04:13.112Z,13.20
2022-09-12T02:04:38.806Z,13.20
2022-09-12T02:05:03.317Z,13.20
2022-09-12T02:05:27.987Z,13.20
2022-09-12T02:05:55.194Z,13.20
2022-09-12T02:06:20.354Z,13.20
2022-09-12T02:06:45.217Z,13.20
2022-09-12T02:07:11.312Z,13.20
2022-09-12T02:07:36.361Z,13.20
2022-09-12T02:08:03.064Z,13.10
2022-09-12T02:08:28.173Z,13.20
2022-09-12T02:08:52.403Z,13.10
2022-09-12T02:09:19.870Z,13.10
2022-09-12T02:09:45.032Z,13.20
2022-09-12T02:10:10.581Z,13.10
2022-09-12T02:10:37.043Z,13.10
2022-09-12T02:11:02.537Z,13.10
2022-09-12T02:11:25.277Z,13.10
2022-09-12T02:11:47.985Z,13.10
2022-09-12T02:12:13.993Z,13.10
2022-09-12T02:12:40.442Z,13.10
2022-09-12T02:13:06.249Z,13.10
2022-09-12T02:13:32.477Z,13.10
2022-09-12T02:13:56.967Z,13.10
2022-09-12T02:14:21.776Z,13.10
2022-09-12T02:14:46.857Z,13.10
2022-09-12T02:15:10.554Z,13.10
2022-09-12T02:15:37.017Z,13.10
2022-09-12T02:16:03.496Z,13.10
2022-09-12T02:16:29.333Z,13.10
2022-09-12T02:16:53.755Z,13.00
2022-09-12T02:17:18.392Z,13.00
2022-09-12T02:17:42.982Z,13.00
2022-09-12T02:18:06.396Z,13.00
2022-09-12T02:18:29.274Z,13.00
2022-09-12T02:18:54.727Z,12.90
2022-09-12T02:19:20.347Z,13.00
2022-09-12T02:19:47.260Z,12.90
2022-09-12T02:20:26.039Z,12.90
2022-09-12T02:20:57.488Z,12.90
2022-09-12T02:21:22.712Z,12.90
2022-09-12T02:21:46.912Z,12.90
2022-09-12T02:22:10.241Z,12.90
2022-09-12T02:22:33.191Z,12.90
2022-09-12T02:22:55.982Z,12.90
2022-09-12T02:23:21.298Z,12.90
2022-09-12T02:23:46.412Z,12.90
2022-09-12T02:24:09.375Z,12.90
2022-09-12T02:24:34.876Z,12.90
2022-09-12T02:24:59.875Z,12.90
2022-09-12T02:25:22.658Z,12.90
2022-09-12T02:25:46.527Z,12.90
2022-09-12T02:26:10.897Z,12.90
2022-09-12T02:26:35.574Z,12.90
2022-09-12T02:27:01.704Z,12.90
2022-09-12T02:27:25.208Z,12.90
2022-09-12T02:27:49.763Z,12.90
2022-09-12T02:28:14.003Z,12.90
2022-09-12T02:28:38.255Z,12.90
2022-09-12T02:29:01.135Z,12.90
2022-09-12T02:29:23.885Z,12.90
2022-09-12T02:29:46.541Z,12.80
2022-09-12T02:30:10.406Z,12.80
2022-09-12T02:30:37.131Z,12.80
2022-09-12T02:31:04.415Z,12.80
2022-09-12T02:31:29.225Z,12.80
2022-09-12T02:31:53.951Z,12.80
2022-09-12T02:32:20.602Z,12.80
2022-09-12T02:32:45.147Z,12.80
2022-09-12T02:33:10.694Z,12.80
2022-09-12T02:33:39.377Z,12.80
2022-09-12T02:34:15.130Z,12.70
2022-09-12T02:34:42.236Z,12.70
2022-09-12T02:35:07.456Z,12.80
2022-09-12T02:35:35.381Z,12.70
2022-09-12T02:36:00.416Z,12.70
2022-09-12T02:36:31.857Z,12.70
2022-09-12T02:36:59.046Z,12.70
2022-09-12T02:37:26.156Z,12.70
2022-09-12T02:37:54.060Z,12.70
2022-09-12T02:38:20.163Z,12.70
2022-09-12T02:38:45.500Z,12.70
2022-09-12T02:39:08.571Z,12.70
2022-09-12T02:39:31.380Z,12.70
2022-09-12T02:39:55.473Z,12.70
2022-09-12T02:40:18.487Z,12.70
2022-09-12T02:40:41.586Z,12.80
2022-09-12T02:41:04.416Z,12.80
2022-09-12T02:41:30.402Z,12.80
2022-09-12T02:41:53.546Z,12.80
2022-09-12T02:42:16.171Z,12.80
2022-09-12T02:42:38.901Z,12.80
2022-09-12T02:43:01.784Z,12.80
2022-09-12T02:43:24.461Z,12.80
2022-09-12T02:43:47.165Z,12.90
2022-09-12T02:44:09.820Z,12.80
2022-09-12T02:44:32.582Z,12.80
2022-09-12T02:44:55.676Z,12.80
2022-09-12T02:45:20.746Z,12.80
2022-09-12T02:45:43.425Z,12.80
2022-09-12T02:46:09.825Z,12.80
2022-09-12T02:46:34.105Z,12.70
2022-09-12T02:46:59.265Z,12.70
2022-09-12T02:47:25.612Z,12.70
2022-09-12T02:47:49.293Z,12.70
2022-09-12T02:48:13.633Z,12.70
2022-09-12T02:48:37.760Z,12.60
2022-09-12T02:49:00.456Z,12.70
2022-09-12T02:49:23.930Z,12.60
2022-09-12T02:49:46.751Z,12.60
2022-09-12T02:50:09.707Z,12.60
2022-09-12T02:50:32.441Z,12.60
2022-09-12T02:50:57.681Z,12.50
2022-09-12T02:51:23.671Z,12.50
2022-09-12T02:51:46.742Z,12.50
2022-09-12T02:52:09.478Z,12.40
2022-09-12T02:52:32.184Z,12.40
2022-09-12T02:52:59.733Z,12.40
2022-09-12T02:53:23.046Z,12.40
2022-09-12T02:53:45.779Z,12.40
2022-09-12T02:54:09.521Z,12.40
2022-09-12T02:54:32.260Z,12.40
2022-09-12T02:54:55.016Z,12.40
2022-09-12T02:55:17.806Z,12.40
2022-09-12T02:55:41.440Z,12.30
2022-09-12T02:56:06.999Z,12.30
2022-09-12T02:56:30.556Z,12.30
2022-09-12T02:56:53.291Z,12.30
2022-09-12T02:57:20.642Z,12.40
2022-09-12T02:57:46.756Z,12.40
2022-09-12T02:58:11.251Z,12.40
2022-09-12T02:58:33.940Z,12.40
2022-09-12T02:58:57.902Z,12.40
2022-09-12T02:59:21.300Z,12.40
2022-09-12T02:59:44.095Z,12.50
2022-09-12T03:00:08.579Z,12.50
2022-09-12T03:00:31.230Z,12.50
2022-09-12T03:00:57.015Z,12.50
2022-09-12T03:01:28.062Z,12.60
2022-09-12T03:02:04.819Z,12.50
2022-09-12T03:02:36.876Z,12.50
2022-09-12T03:03:09.941Z,12.60
2022-09-12T03:03:48.016Z,12.50
2022-09-12T03:04:29.896Z,12.50
2022-09-12T03:05:08.181Z,12.50
2022-09-12T03:05:31.825Z,12.60
2022-09-12T03:05:56.616Z,12.60
2022-09-12T03:06:22.471Z,12.60
2022-09-12T03:06:49.971Z,12.70
2022-09-12T03:07:14.730Z,12.70
2022-09-12T03:08:05.432Z,12.70
2022-09-12T03:08:51.257Z,12.70
2022-09-12T03:09:16.197Z,12.70
2022-09-12T03:09:43.882Z,12.70
2022-09-12T03:10:09.687Z,12.70
2022-09-12T03:10:36.057Z,12.70
2022-09-12T03:11:21.147Z,12.70
2022-09-12T03:12:05.998Z,12.80
2022-09-12T03:12:36.812Z,12.80
2022-09-12T03:13:05.087Z,12.80
2022-09-12T03:13:31.853Z,12.80
2022-09-12T03:14:02.501Z,12.80
2022-09-12T03:14:35.722Z,12.90
2022-09-12T03:15:23.587Z,12.90
2022-09-12T03:15:51.697Z,12.90
2022-09-12T03:16:17.328Z,12.90
2022-09-12T03:16:45.012Z,12.80
2022-09-12T03:17:10.425Z,12.90
2022-09-12T03:17:44.172Z,12.90
2022-09-12T03:18:12.510Z,12.90
2022-09-12T03:18:47.364Z,13.00
2022-09-12T03:19:14.582Z,13.00
2022-09-12T03:19:46.316Z,12.90
2022-09-12T03:20:10.567Z,12.90
2022-09-12T03:20:41.927Z,12.80
2022-09-12T03:21:07.512Z,12.90
2022-09-12T03:21:33.652Z,12.90
2022-09-12T03:22:02.617Z,12.80
2022-09-12T03:22:29.342Z,12.90
2022-09-12T03:22:56.172Z,12.90
2022-09-12T03:23:24.897Z,12.90
2022-09-12T03:23:51.687Z,12.90
2022-09-12T03:24:16.335Z,12.90
2022-09-12T03:24:41.603Z,12.90
2022-09-12T03:25:07.849Z,12.90
2022-09-12T03:25:32.997Z,12.90
2022-09-12T03:25:58.649Z,12.90
2022-09-12T03:26:26.068Z,12.90
2022-09-12T03:26:50.267Z,12.80
2022-09-12T03:27:14.252Z,12.90
2022-09-12T03:27:39.262Z,12.80
2022-09-12T03:28:07.560Z,12.90
2022-09-12T03:28:30.332Z,12.90
2022-09-12T03:28:53.132Z,12.80
2022-09-12T03:29:15.916Z,12.80
2022-09-12T03:29:39.043Z,12.90
2022-09-12T03:30:02.075Z,12.80
2022-09-12T03:30:24.865Z,12.80
2022-09-12T03:30:51.448Z,12.80
2022-09-12T03:31:14.752Z,12.80
2022-09-12T03:31:37.578Z,12.80
2022-09-12T03:32:02.023Z,12.80
2022-09-12T03:32:43.086Z,12.80
2022-09-12T03:33:05.792Z,12.70
2022-09-12T03:33:28.591Z,12.80
2022-09-12T03:33:51.361Z,12.80
2022-09-12T03:34:14.236Z,12.80
2022-09-12T03:34:37.050Z,12.80
2022-09-12T03:34:59.738Z,12.90
2022-09-12T03:35:23.571Z,12.90
2022-09-12T03:35:46.757Z,12.90
2022-09-12T03:36:14.732Z,12.90
2022-09-12T03:36:37.509Z,12.90
2022-09-12T03:37:00.271Z,12.90
2022-09-12T03:37:22.892Z,12.90
2022-09-12T03:37:45.804Z,12.90
2022-09-12T03:38:11.031Z,12.90
2022-09-12T03:38:33.754Z,12.90
2022-09-12T03:38:56.484Z,12.90
2022-09-12T03:39:21.367Z,12.90
2022-09-12T03:39:44.106Z,12.90
2022-09-12T03:40:08.134Z,12.90
2022-09-12T03:40:30.868Z,13.00
2022-09-12T03:40:55.782Z,12.90
2022-09-12T03:41:18.538Z,13.00
2022-09-12T03:41:41.379Z,13.00
2022-09-12T03:42:04.322Z,13.00
2022-09-12T03:42:27.074Z,13.00
2022-09-12T03:42:49.747Z,13.00
2022-09-12T03:43:12.831Z,13.00
2022-09-12T03:43:35.512Z,13.00
2022-09-12T03:44:00.563Z,13.00
2022-09-12T03:44:23.237Z,13.00
2022-09-12T03:44:45.909Z,13.00
2022-09-12T03:45:09.617Z,13.00
2022-09-12T03:45:32.492Z,13.00
2022-09-12T03:45:55.447Z,13.00
2022-09-12T03:46:19.267Z,13.00
2022-09-12T03:46:42.087Z,13.00
2022-09-12T03:47:11.283Z,12.90
2022-09-12T03:47:34.291Z,12.90
2022-09-12T03:47:56.961Z,12.90
2022-09-12T03:48:19.677Z,12.90
2022-09-12T03:48:42.485Z,12.90
2022-09-12T03:49:06.145Z,12.90
2022-09-12T03:49:28.817Z,13.00
2022-09-12T03:49:53.785Z,12.90
2022-09-12T03:50:17.682Z,12.90
2022-09-12T03:50:40.408Z,12.90
2022-09-12T03:51:03.173Z,12.90
2022-09-12T03:51:25.916Z,12.90
2022-09-12T03:51:48.878Z,12.90
2022-09-12T03:52:11.697Z,12.90
2022-09-12T03:52:34.405Z,12.90
2022-09-12T03:52:59.042Z,12.90
2022-09-12T03:53:21.712Z,12.90
2022-09-12T03:53:44.503Z,12.90
2022-09-12T03:54:07.223Z,12.90
2022-09-12T03:54:29.907Z,12.90
2022-09-12T03:54:52.701Z,12.90
2022-09-12T03:55:15.525Z,12.90
2022-09-12T03:55:39.583Z,12.90
2022-09-12T03:56:07.580Z,12.90
2022-09-12T03:56:30.535Z,12.90
2022-09-12T03:56:53.256Z,12.90
2022-09-12T03:57:15.983Z,12.90
2022-09-12T03:57:38.722Z,13.00
2022-09-12T03:58:01.464Z,12.90
2022-09-12T03:58:24.094Z,12.90
2022-09-12T03:58:49.579Z,12.90
2022-09-12T03:59:12.313Z,12.90
2022-09-12T03:59:35.059Z,12.90
2022-09-12T03:59:57.698Z,12.90
2022-09-12T04:00:20.390Z,12.90
2022-09-12T04:00:44.663Z,12.90
2022-09-12T04:01:12.572Z,12.90
2022-09-12T04:01:35.529Z,13.00
2022-09-12T04:02:00.674Z,12.90
2022-09-12T04:02:24.861Z,13.00
2022-09-12T04:02:47.559Z,13.00
2022-09-12T04:03:10.273Z,13.00
2022-09-12T04:03:32.983Z,13.00
2022-09-12T04:03:55.644Z,13.00
2022-09-12T04:04:18.433Z,13.00
2022-09-12T04:04:43.663Z,13.00
2022-09-12T04:05:06.780Z,13.00
2022-09-12T04:05:29.565Z,13.00
2022-09-12T04:05:52.298Z,13.00
2022-09-12T04:06:16.313Z,13.00
2022-09-12T04:06:39.030Z,13.00
2022-09-12T04:07:01.678Z,13.00
2022-09-12T04:07:24.409Z,13.00
2022-09-12T04:07:49.711Z,13.00
2022-09-12T04:08:15.138Z,13.00
2022-09-12T04:08:38.083Z,12.90
2022-09-12T04:09:00.926Z,12.90
2022-09-12T04:09:23.738Z,12.90
2022-09-12T04:09:46.699Z,12.90
2022-09-12T04:10:10.157Z,12.90
2022-09-12T04:10:32.808Z,12.90
2022-09-12T04:10:55.748Z,12.90
2022-09-12T04:11:19.767Z,12.90
2022-09-12T04:11:42.491Z,12.90
2022-09-12T04:12:06.096Z,12.90
2022-09-12T04:12:29.833Z,12.90
2022-09-12T04:12:52.541Z,12.90
2022-09-12T04:13:15.306Z,12.90
2022-09-12T04:13:39.731Z,12.90
2022-09-12T04:14:02.467Z,12.90
2022-09-12T04:14:25.171Z,12.90
2022-09-12T04:14:47.978Z,12.90
2022-09-12T04:15:11.164Z,12.80
2022-09-12T04:15:33.992Z,12.90
2022-09-12T04:15:59.686Z,12.90
2022-09-12T04:16:22.657Z,12.90
2022-09-12T04:16:45.381Z,12.90
2022-09-12T04:17:08.061Z,12.90
2022-09-12T04:17:32.261Z,13.00
2022-09-12T04:17:55.115Z,13.00
2022-09-12T04:18:20.312Z,13.00
2022-09-12T04:18:43.113Z,13.00
2022-09-12T04:19:05.792Z,13.00
2022-09-12T04:19:28.803Z,13.00
2022-09-12T04:19:51.529Z,13.00
2022-09-12T04:20:16.496Z,12.90
2022-09-12T04:20:39.204Z,12.90
2022-09-12T04:21:04.506Z,12.90
2022-09-12T04:21:27.242Z,12.90
2022-09-12T04:21:50.147Z,12.90
2022-09-12T04:22:12.897Z,12.90
2022-09-12T04:22:35.983Z,12.90
2022-09-12T04:23:01.240Z,12.80
2022-09-12T04:23:23.992Z,12.90
2022-09-12T04:23:46.718Z,12.90
2022-09-12T04:24:09.373Z,12.90
2022-09-12T04:24:32.158Z,12.90
2022-09-12T04:24:54.904Z,12.90
2022-09-12T04:25:17.757Z,12.80
2022-09-12T04:25:40.548Z,12.80
2022-09-12T04:26:06.608Z,12.80
2022-09-12T04:26:30.305Z,12.80
2022-09-12T04:26:53.521Z,12.70
2022-09-12T04:27:16.348Z,12.80
2022-09-12T04:27:41.392Z,12.70
2022-09-12T04:28:04.172Z,12.70
2022-09-12T04:28:29.042Z,12.70
2022-09-12T04:28:53.878Z,12.70
2022-09-12T04:29:16.788Z,12.60
2022-09-12T04:29:39.457Z,12.60
2022-09-12T04:30:04.633Z,12.70
2022-09-12T04:30:27.391Z,12.70
2022-09-12T04:30:50.196Z,12.70
2022-09-12T04:31:15.762Z,12.60
2022-09-12T04:31:38.553Z,12.60
2022-09-12T04:32:01.441Z,12.60
2022-09-12T04:32:24.198Z,12.60
2022-09-12T04:32:48.494Z,12.60
2022-09-12T04:33:11.177Z,12.60
2022-09-12T04:33:34.004Z,12.60
2022-09-12T04:33:58.232Z,12.60
2022-09-12T04:34:21.299Z,12.60
2022-09-12T04:34:44.018Z,12.60
2022-09-12T04:35:07.031Z,12.60
2022-09-12T04:35:32.404Z,12.60
2022-09-12T04:35:57.322Z,12.60
2022-09-12T04:36:20.062Z,12.60
2022-09-12T04:36:44.359Z,12.60
2022-09-12T04:37:07.158Z,12.60
2022-09-12T04:37:29.754Z,12.60
2022-09-12T04:37:52.632Z,12.60
2022-09-12T04:38:15.472Z,12.60
2022-09-12T04:38:38.597Z,12.60
2022-09-12T04:39:01.672Z,12.60
2022-09-12T04:39:24.552Z,12.60
2022-09-12T04:39:49.674Z,12.60
2022-09-12T04:40:13.027Z,12.60
2022-09-12T04:40:35.937Z,12.60
2022-09-12T04:40:58.736Z,12.60
2022-09-12T04:41:25.447Z,12.60
2022-09-12T04:41:48.242Z,12.60
2022-09-12T04:42:11.042Z,12.60
2022-09-12T04:42:36.126Z,12.60
2022-09-12T04:42:58.819Z,12.60
2022-09-12T04:43:21.511Z,12.60
2022-09-12T04:43:46.538Z,12.60
2022-09-12T04:44:11.778Z,12.60
2022-09-12T04:44:34.604Z,12.60
2022-09-12T04:44:57.399Z,12.60
2022-09-12T04:45:20.167Z,12.60
2022-09-12T04:45:43.251Z,12.60
2022-09-12T04:46:06.669Z,12.60
2022-09-12T04:46:29.912Z,12.60
2022-09-12T04:46:52.959Z,12.60
2022-09-12T04:47:16.970Z,12.70
2022-09-12T04:47:39.645Z,12.70
2022-09-12T04:48:04.034Z,12.70
2022-09-12T04:48:27.379Z,12.70
2022-09-12T04:48:54.496Z,12.60
2022-09-12T04:49:19.789Z,12.70
2022-09-12T04:49:45.025Z,12.60
2022-09-12T04:50:08.902Z,12.60
2022-09-12T04:50:31.624Z,12.70
2022-09-12T04:50:54.279Z,12.70
2022-09-12T04:51:18.386Z,12.70
2022-09-12T04:51:42.029Z,12.80
2022-09-12T04:52:04.973Z,12.80
2022-09-12T04:52:27.780Z,12.90
2022-09-12T04:52:51.050Z,13.00
2022-09-12T04:53:13.783Z,13.10
2022-09-12T04:53:37.240Z,13.20
2022-09-12T04:54:01.013Z,13.20
2022-09-12T04:54:23.628Z,13.30
2022-09-12T04:54:46.290Z,13.40
2022-09-12T04:55:09.681Z,13.50
2022-09-12T04:55:34.069Z,13.50
2022-09-12T04:55:57.927Z,13.60
2022-09-12T04:56:20.786Z,13.60
2022-09-12T04:56:46.077Z,13.60
2022-09-12T04:57:08.757Z,13.60
2022-09-12T04:57:31.381Z,13.60
2022-09-12T04:57:54.096Z,13.60
2022-09-12T04:58:18.422Z,13.60
2022-09-12T04:58:41.162Z,13.60
2022-09-12T04:59:03.911Z,13.60
2022-09-12T04:59:29.122Z,13.60
2022-09-12T04:59:51.855Z,13.60
2022-09-12T05:00:15.532Z,13.60
2022-09-12T05:00:38.241Z,13.60
2022-09-12T05:01:06.167Z,13.50
2022-09-12T05:01:30.388Z,13.50
2022-09-12T05:01:53.477Z,13.50
2022-09-12T05:02:16.539Z,13.50
2022-09-12T05:02:39.182Z,13.60
2022-09-12T05:03:03.429Z,13.60
2022-09-12T05:03:26.168Z,13.60
2022-09-12T05:03:50.563Z,13.70
2022-09-12T05:04:13.460Z,13.60
2022-09-12T05:04:36.290Z,13.70
2022-09-12T05:04:59.038Z,13.80
2022-09-12T05:05:22.088Z,13.90
2022-09-12T05:05:44.889Z,14.00
2022-09-12T05:06:08.963Z,14.10
2022-09-12T05:06:32.808Z,14.20
2022-09-12T05:06:55.699Z,14.30
2022-09-12T05:07:19.215Z,14.40
2022-09-12T05:07:41.959Z,14.50
2022-09-12T05:08:04.645Z,14.70
2022-09-12T05:08:27.386Z,14.80
2022-09-12T05:08:50.140Z,14.90
2022-09-12T05:09:15.327Z,15.00
2022-09-12T05:09:38.081Z,15.20
2022-09-12T05:10:00.841Z,15.30
2022-09-12T05:10:24.255Z,15.40
2022-09-12T05:10:46.925Z,15.60
2022-09-12T05:11:11.681Z,15.70
2022-09-12T05:12:02.050Z,15.80
2022-09-12T05:12:18.096Z,15.90
2022-09-12T05:12:40.926Z,16.10
2022-09-12T05:13:03.805Z,16.20
2022-09-12T05:13:27.412Z,16.30
2022-09-12T05:13:50.186Z,16.40
2022-09-12T05:14:13.020Z,16.40
2022-09-12T05:14:35.799Z,16.60
2022-09-12T05:14:58.576Z,16.60
2022-09-12T05:15:21.337Z,16.70
2022-09-12T05:15:45.117Z,16.80
2022-09-12T05:16:08.500Z,16.90
2022-09-12T05:16:34.043Z,17.00
2022-09-12T05:17:00.156Z,17.10
2022-09-12T05:17:23.023Z,17.20
2022-09-12T05:17:45.761Z,17.40
2022-09-12T05:18:09.958Z,17.40
2022-09-12T05:18:33.057Z,17.50
2022-09-12T05:18:57.861Z,17.70
2022-09-12T05:19:20.630Z,17.80
2022-09-12T05:19:43.286Z,17.80
2022-09-12T05:20:06.931Z,17.90
2022-09-12T05:20:29.711Z,18.00
2022-09-12T05:20:52.437Z,18.10
2022-09-12T05:21:16.598Z,18.10